createdAt,value
2019-04-26T00:02:52.276Z,13.40
2019-04-26T00:07:58.467Z,13.20
2019-04-26T00:13:18.645Z,13.00
2019-04-26T00:18:24.435Z,12.90
2019-04-26T00:23:30.909Z,12.90
2019-04-26T00:28:36.794Z,12.90
2019-04-26T00:33:42.232Z,12.90
2019-04-26T00:38:47.770Z,12.90
2019-04-26T00:43:53.229Z,12.90
2019-04-26T00:48:58.677Z,13.00
2019-04-26T00:54:04.066Z,13.00
2019-04-26T00:59:09.873Z,13.00
2019-04-26T01:04:16.047Z,13.10
2019-04-26T01:09:23.703Z,13.00
2019-04-26T01:14:29.246Z,13.00
2019-04-26T01:19:34.672Z,13.00
2019-04-26T01:24:40.104Z,13.00
2019-04-26T01:29:45.532Z,13.00
2019-04-26T01:34:51.040Z,13.00
2019-04-26T01:39:59.473Z,13.00
2019-04-26T01:45:16.551Z,13.00
2019-04-26T01:50:23.556Z,12.90
2019-04-26T01:55:29.220Z,12.90
2019-04-26T02:00:43.689Z,12.90
2019-04-26T02:05:49.151Z,12.90
2019-04-26T02:10:54.595Z,12.90
2019-04-26T02:16:00.062Z,12.90
2019-04-26T02:21:35.659Z,13.00
2019-04-26T02:26:43.077Z,12.90
2019-04-26T02:31:52.834Z,12.90
2019-04-26T02:37:01.581Z,12.90
2019-04-26T02:42:20.447Z,12.80
2019-04-26T02:47:46.593Z,12.80
2019-04-26T02:53:16.763Z,12.70
2019-04-26T02:58:22.516Z,12.70
2019-04-26T03:03:29.828Z,12.70
2019-04-26T03:08:36.021Z,12.70
2019-04-26T03:13:49.766Z,12.60
2019-04-26T03:19:10.916Z,12.60
2019-04-26T03:24:32.261Z,12.60
2019-04-26T03:30:23.264Z,12.50
2019-04-26T03:35:39.847Z,12.50
2019-04-26T03:40:58.950Z,12.50
2019-04-26T03:46:35.660Z,12.50
2019-04-26T03:52:13.278Z,12.40
2019-04-26T03:57:42.709Z,12.40
2019-04-26T04:03:22.287Z,12.40
2019-04-26T04:08:45.988Z,12.40
2019-04-26T04:14:03.452Z,12.40
2019-04-26T04:19:56.960Z,12.50
2019-04-26T04:25:04.611Z,12.40
2019-04-26T04:30:56.389Z,12.50
2019-04-26T04:36:09.954Z,12.50
2019-04-26T04:41:28.530Z,12.50
2019-04-26T04:47:45.162Z,12.50
2019-04-26T04:53:02.551Z,12.50
2019-04-26T04:58:13.150Z,12.50
2019-04-26T05:03:42.344Z,12.50
2019-04-26T05:09:00.881Z,12.50
2019-04-26T05:14:30.675Z,12.50
2019-04-26T05:20:44.450Z,12.50
2019-04-26T05:26:40.200Z,12.50
2019-04-26T05:32:25.010Z,12.60
2019-04-26T05:38:04.736Z,12.60
2019-04-26T05:43:41.019Z,12.70
2019-04-26T05:49:50.363Z,12.80
2019-04-26T05:55:47.817Z,13.00
2019-04-26T06:02:30.449Z,13.20
2019-04-26T06:07:56.350Z,13.40
2019-04-26T06:14:08.962Z,13.60
2019-04-26T06:19:24.215Z,13.70
2019-04-26T06:24:49.249Z,13.80
2019-04-26T06:30:19.755Z,13.80
2019-04-26T06:35:26.427Z,13.90
2019-04-26T06:41:24.763Z,13.90
2019-04-26T06:47:11.151Z,13.90
2019-04-26T06:52:19.824Z,13.80
2019-04-26T06:58:16.780Z,13.80
2019-04-26T07:04:19.905Z,13.80
2019-04-26T07:09:27.067Z,13.90
2019-04-26T07:15:28.716Z,13.90
2019-04-26T07:20:40.741Z,13.90
2019-04-26T07:26:45.152Z,13.90
2019-04-26T07:31:59.128Z,13.90
2019-04-26T07:38:04.807Z,13.90
2019-04-26T07:43:24.257Z,14.00
2019-04-26T07:49:25.872Z,14.20
2019-04-26T07:55:25.995Z,14.40
2019-04-26T08:00:44.975Z,14.70
2019-04-26T08:06:20.220Z,15.30
2019-04-26T08:11:34.471Z,15.80
2019-04-26T08:17:01.056Z,16.40
2019-04-26T08:22:17.873Z,16.60
2019-04-26T08:27:23.856Z,16.70
2019-04-26T08:32:33.394Z,16.70
2019-04-26T08:37:46.720Z,16.50
2019-04-26T08:43:02.665Z,16.40
2019-04-26T08:48:23.348Z,16.20
2019-04-26T08:53:28.094Z,16.20
2019-04-26T08:58:33.589Z,16.20
2019-04-26T09:04:02.038Z,16.20
2019-04-26T09:09:18.229Z,16.30
2019-04-26T09:14:23.793Z,16.50
2019-04-26T09:19:30.434Z,16.70
2019-04-26T09:24:47.160Z,16.80
2019-04-26T09:30:00.610Z,17.00
2019-04-26T09:35:06.756Z,16.90
2019-04-26T09:40:21.086Z,17.10
2019-04-26T09:45:48.142Z,17.50
2019-04-26T09:50:54.411Z,17.80
2019-04-26T09:55:59.889Z,18.10
2019-04-26T10:01:06.346Z,18.10
2019-04-26T10:06:12.356Z,18.00
2019-04-26T10:11:19.968Z,18.10
2019-04-26T10:16:36.909Z,18.50
2019-04-26T10:21:40.655Z,18.90
2019-04-26T10:26:46.161Z,19.00
2019-04-26T10:31:52.794Z,19.00
2019-04-26T10:37:01.723Z,19.10
2019-04-26T10:42:05.706Z,19.30
2019-04-26T10:47:11.256Z,19.70
2019-04-26T10:52:26.735Z,20.30
2019-04-26T10:57:36.778Z,21.00
2019-04-26T11:02:42.316Z,21.90
2019-04-26T11:07:47.849Z,22.40
2019-04-26T11:12:53.254Z,22.60
2019-04-26T11:17:58.700Z,22.80
2019-04-26T11:23:08.207Z,22.80
2019-04-26T11:28:13.100Z,22.80
2019-04-26T11:33:18.615Z,22.70
2019-04-26T11:38:26.961Z,22.70
2019-04-26T11:43:31.429Z,22.60
2019-04-26T11:48:36.862Z,22.40
2019-04-26T11:53:44.737Z,22.30
2019-04-26T11:58:52.558Z,22.50
2019-04-26T12:04:25.010Z,22.60
2019-04-26T12:09:42.497Z,22.40
2019-04-26T12:14:48.202Z,22.20
2019-04-26T12:19:53.660Z,22.10
2019-04-26T12:24:59.092Z,22.10
2019-04-26T12:30:04.670Z,22.20
2019-04-26T12:35:10.077Z,22.40
2019-04-26T12:40:15.993Z,22.40
2019-04-26T12:45:40.415Z,22.30
2019-04-26T12:50:45.908Z,22.20
2019-04-26T12:55:53.232Z,22.30
2019-04-26T13:01:00.144Z,22.30
2019-04-26T13:06:05.783Z,22.20
2019-04-26T13:11:30.109Z,22.20
2019-04-26T13:16:52.782Z,22.40
2019-04-26T13:21:58.510Z,22.60
2019-04-26T13:27:06.214Z,22.90
2019-04-26T13:32:11.670Z,22.80
2019-04-26T13:37:17.966Z,22.90
2019-04-26T13:42:23.490Z,22.90
2019-04-26T13:47:46.823Z,22.70
2019-04-26T13:52:52.363Z,22.70
2019-04-26T13:57:57.885Z,22.70
2019-04-26T14:03:03.295Z,22.70
2019-04-26T14:08:09.162Z,22.60
2019-04-26T14:13:14.758Z,22.60
2019-04-26T14:18:20.237Z,22.40
2019-04-26T14:23:45.245Z,22.10
2019-04-26T14:28:49.868Z,21.80
2019-04-26T14:33:55.301Z,21.50
2019-04-26T14:39:06.000Z,21.40
2019-04-26T14:44:15.292Z,21.40
2019-04-26T14:49:19.234Z,21.60
2019-04-26T14:54:23.414Z,21.50
2019-04-26T14:59:47.089Z,21.30
2019-04-26T15:04:58.089Z,21.20
2019-04-26T15:10:06.851Z,21.00
2019-04-26T15:15:11.250Z,21.20
2019-04-26T15:20:20.761Z,21.40
2019-04-26T15:25:23.883Z,21.30
2019-04-26T15:30:29.337Z,21.10
2019-04-26T15:35:35.893Z,20.90
2019-04-26T15:41:05.589Z,20.70
2019-04-26T15:46:27.110Z,20.40
2019-04-26T15:51:33.734Z,19.90
2019-04-26T15:56:39.459Z,19.50
2019-04-26T16:01:47.673Z,19.50
2019-04-26T16:06:52.308Z,19.80
2019-04-26T16:11:57.726Z,20.00
2019-04-26T16:17:06.514Z,20.00
2019-04-26T16:22:10.474Z,20.00
2019-04-26T16:27:16.050Z,20.00
2019-04-26T16:32:34.496Z,19.90
2019-04-26T16:37:40.144Z,19.80
2019-04-26T16:42:49.739Z,19.60
2019-04-26T16:47:53.198Z,19.40
2019-04-26T16:52:58.739Z,19.30
2019-04-26T16:58:04.553Z,19.20
2019-04-26T17:03:10.207Z,19.00
2019-04-26T17:08:19.112Z,18.80
2019-04-26T17:13:24.011Z,18.60
2019-04-26T17:18:30.303Z,18.30
2019-04-26T17:24:04.836Z,18.10
2019-04-26T17:29:08.006Z,17.90
2019-04-26T17:34:13.574Z,17.70
2019-04-26T17:39:19.092Z,17.50
2019-04-26T17:44:26.613Z,17.40
2019-04-26T17:49:34.523Z,17.30
2019-04-26T17:54:48.902Z,17.40
2019-04-26T17:59:48.888Z,17.50
2019-04-26T18:05:00.421Z,17.70
2019-04-26T18:10:04.365Z,17.90
2019-04-26T18:15:10.349Z,18.00
2019-04-26T18:20:27.341Z,18.00
2019-04-26T18:25:32.758Z,17.80
2019-04-26T18:30:40.335Z,17.50
2019-04-26T18:35:49.220Z,17.20
2019-04-26T18:41:01.226Z,16.90
2019-04-26T18:46:06.464Z,16.50
2019-04-26T18:51:11.183Z,16.10
2019-04-26T18:56:17.730Z,15.80
2019-04-26T19:01:23.159Z,15.40
2019-04-26T19:06:31.813Z,15.10
2019-04-26T19:11:36.168Z,14.80
2019-04-26T19:16:50.227Z,14.60
2019-04-26T19:22:01.504Z,14.40
2019-04-26T19:27:07.134Z,14.20
2019-04-26T19:32:12.662Z,14.00
2019-04-26T19:37:18.147Z,13.80
2019-04-26T19:42:27.105Z,13.70
2019-04-26T19:47:44.013Z,13.60
2019-04-26T19:52:59.493Z,13.50
2019-04-26T19:58:16.680Z,13.40
2019-04-26T20:03:18.148Z,13.20
2019-04-26T20:08:23.798Z,13.10
2019-04-26T20:13:29.284Z,13.00
2019-04-26T20:18:38.970Z,12.90
2019-04-26T20:23:43.792Z,12.90
2019-04-26T20:28:49.349Z,12.70
2019-04-26T20:33:54.860Z,12.70
2019-04-26T20:39:01.760Z,12.50
2019-04-26T20:44:09.938Z,12.50
2019-04-26T20:49:14.608Z,12.40
2019-04-26T20:54:20.148Z,12.30
2019-04-26T20:59:25.665Z,12.20
2019-04-26T21:04:38.097Z,12.20
2019-04-26T21:09:40.891Z,12.10
2019-04-26T21:14:45.867Z,12.00
2019-04-26T21:19:54.905Z,11.90
2019-04-26T21:25:04.626Z,11.80
2019-04-26T21:30:24.845Z,11.70
2019-04-26T21:35:49.190Z,11.70
2019-04-26T21:41:04.367Z,11.60
2019-04-26T21:46:08.427Z,11.60
2019-04-26T21:51:16.127Z,11.70
2019-04-26T21:56:23.331Z,11.70
2019-04-26T22:01:28.984Z,11.70
2019-04-26T22:06:34.501Z,11.60
2019-04-26T22:11:40.364Z,11.70
2019-04-26T22:17:06.331Z,11.80
2019-04-26T22:22:29.188Z,12.00
2019-04-26T22:27:34.689Z,12.00
2019-04-26T22:32:40.285Z,11.90
2019-04-26T22:37:48.103Z,11.90
2019-04-26T22:42:57.967Z,12.00
2019-04-26T22:48:23.880Z,12.00
2019-04-26T22:53:29.420Z,12.00
2019-04-26T22:58:35.038Z,11.90
2019-04-26T23:03:41.149Z,12.00
2019-04-26T23:08:47.907Z,12.00
2019-04-26T23:14:11.523Z,12.10
2019-04-26T23:19:33.506Z,12.20
2019-04-26T23:24:38.955Z,12.20
2019-04-26T23:29:45.913Z,12.20
2019-04-26T23:34:53.136Z,12.20
2019-04-26T23:39:58.947Z,12.10
2019-04-26T23:45:04.697Z,12.00
2019-04-26T23:50:10.206Z,11.80
2019-04-26T23:55:15.728Z,11.60
